createdAt,value
2022-10-17T00:02:51.881Z,101445.19
2022-10-17T00:07:56.509Z,101440.53
2022-10-17T00:13:02.076Z,101443.06
2022-10-17T00:18:05.737Z,101436.09
2022-10-17T00:23:11.049Z,101439.81
2022-10-17T00:28:16.718Z,101430.09
2022-10-17T00:33:20.248Z,101428.44
2022-10-17T00:38:23.779Z,101418.31
2022-10-17T00:43:29.489Z,101414.72
2022-10-17T00:48:33.016Z,101408.28
2022-10-17T00:53:37.878Z,101403.84
2022-10-17T00:58:43.226Z,101406.34
2022-10-17T01:03:47.026Z,101405.78
2022-10-17T01:08:50.570Z,101406.19
2022-10-17T01:14:02.421Z,101411.03
2022-10-17T01:19:26.610Z,101410.06
2022-10-17T01:24:49.458Z,101412.66
2022-10-17T01:30:10.467Z,101414.97
2022-10-17T01:35:23.222Z,101414.09
2022-10-17T01:40:31.311Z,101420.78
2022-10-17T01:45:41.534Z,101425.47
2022-10-17T01:50:51.748Z,101425.50
2022-10-17T01:55:58.913Z,101415.84
2022-10-17T02:01:06.148Z,101425.34
2022-10-17T02:06:12.286Z,101426.28
2022-10-17T02:11:18.543Z,101425.63
2022-10-17T02:16:35.273Z,101432.97
2022-10-17T02:21:51.969Z,101440.81
2022-10-17T02:27:02.772Z,101445.41
2022-10-17T02:32:09.619Z,101452.00
2022-10-17T02:37:23.910Z,101453.91
2022-10-17T02:42:30.203Z,101460.75
2022-10-17T02:47:38.527Z,101472.50
2022-10-17T02:52:49.250Z,101474.44
2022-10-17T02:57:56.796Z,101480.81
2022-10-17T03:03:00.312Z,101486.34
2022-10-17T03:08:05.758Z,101489.41
2022-10-17T03:13:09.281Z,101484.69
2022-10-17T03:18:13.087Z,101490.91
2022-10-17T03:23:27.831Z,101489.78
2022-10-17T03:28:31.387Z,101487.34
2022-10-17T03:33:34.978Z,101496.19
2022-10-17T03:38:40.640Z,101491.03
2022-10-17T03:43:44.158Z,101494.16
2022-10-17T03:48:47.692Z,101501.22
2022-10-17T03:53:53.038Z,101490.06
2022-10-17T03:58:57.070Z,101501.66
2022-10-17T04:04:00.628Z,101501.00
2022-10-17T04:09:06.630Z,101507.22
2022-10-17T04:14:11.529Z,101515.94
2022-10-17T04:19:15.265Z,101513.53
2022-10-17T04:24:20.534Z,101519.75
2022-10-17T04:29:24.820Z,101521.59
2022-10-17T04:34:28.361Z,101520.94
2022-10-17T04:39:33.518Z,101521.91
2022-10-17T04:44:37.058Z,101525.53
2022-10-17T04:54:46.546Z,101542.81
2022-10-17T04:59:50.098Z,101538.59
2022-10-17T05:04:53.618Z,101538.81
2022-10-17T05:09:58.804Z,101536.25
2022-10-17T05:15:02.346Z,101549.53
2022-10-17T05:20:06.885Z,101547.19
2022-10-17T05:25:13.863Z,101543.78
2022-10-17T05:30:17.496Z,101544.94
2022-10-17T05:35:21.067Z,101548.34
2022-10-17T05:40:26.278Z,101545.66
2022-10-17T05:45:29.822Z,101550.13
2022-10-17T05:50:33.501Z,101543.13
2022-10-17T05:55:38.658Z,101539.72
2022-10-17T06:00:42.231Z,101545.09
2022-10-17T06:05:45.763Z,101553.09
2022-10-17T06:10:51.411Z,101550.63
2022-10-17T06:15:55.015Z,101554.22
2022-10-17T06:21:03.877Z,101546.38
2022-10-17T06:26:09.238Z,101552.53
2022-10-17T06:31:14.527Z,101555.38
2022-10-17T06:36:18.202Z,101544.91
2022-10-17T06:41:23.346Z,101553.75
2022-10-17T06:46:26.852Z,101554.66
2022-10-17T06:51:30.414Z,101548.66
2022-10-17T06:56:36.505Z,101540.09
2022-10-17T07:01:41.773Z,101535.66
2022-10-17T07:06:49.886Z,101550.66
2022-10-17T07:11:55.080Z,101558.63
2022-10-17T07:16:58.661Z,101553.56
2022-10-17T07:22:02.212Z,101556.22
2022-10-17T07:27:07.486Z,101570.13
2022-10-17T07:32:11.061Z,101571.13
2022-10-17T07:37:14.621Z,101563.19
2022-10-17T07:42:19.807Z,101566.03
2022-10-17T07:47:23.608Z,101559.03
2022-10-17T07:52:27.474Z,101559.09
2022-10-17T07:57:32.891Z,101567.81
2022-10-17T08:02:36.418Z,101568.88
2022-10-17T08:07:39.969Z,101567.28
2022-10-17T08:12:45.799Z,101564.63
2022-10-17T08:17:50.246Z,101574.25
2022-10-17T08:22:54.192Z,101569.97
2022-10-17T08:27:59.630Z,101576.97
2022-10-17T08:33:03.222Z,101562.16
2022-10-17T08:38:08.180Z,101569.28
2022-10-17T08:43:35.345Z,101567.56
2022-10-17T08:48:43.994Z,101571.19
2022-10-17T08:53:55.124Z,101580.09
2022-10-17T08:59:00.384Z,101581.84
2022-10-17T09:04:20.532Z,101597.53
2022-10-17T09:09:35.222Z,101593.19
2022-10-17T09:15:09.048Z,101587.13
2022-10-17T09:20:17.132Z,101588.09
2022-10-17T09:25:21.839Z,101583.75
2022-10-17T09:30:50.796Z,101582.84
2022-10-17T09:35:54.962Z,101580.25
2022-10-17T09:41:01.289Z,101575.09
2022-10-17T09:46:13.755Z,101569.81
2022-10-17T09:51:25.588Z,101577.84
2022-10-17T09:56:30.357Z,101580.38
2022-10-17T10:01:35.564Z,101586.59
2022-10-17T10:06:39.822Z,101576.22
2022-10-17T10:11:48.869Z,101575.41
2022-10-17T10:16:54.311Z,101575.34
2022-10-17T10:21:59.461Z,101577.22
2022-10-17T10:27:04.907Z,101571.19
2022-10-17T10:32:13.208Z,101560.72
2022-10-17T10:37:22.449Z,101548.47
2022-10-17T10:42:29.718Z,101556.50
2022-10-17T10:47:34.944Z,101546.78
2022-10-17T10:52:44.065Z,101552.94
2022-10-17T10:57:49.507Z,101548.66
2022-10-17T11:03:03.810Z,101541.66
2022-10-17T11:08:14.868Z,101543.41
2022-10-17T11:13:23.049Z,101533.88
2022-10-17T11:18:34.086Z,101537.38
2022-10-17T11:23:42.294Z,101535.69
2022-10-17T11:28:45.873Z,101533.88
2022-10-17T11:33:55.086Z,101526.16
2022-10-17T11:39:02.773Z,101533.09
2022-10-17T11:44:20.970Z,101531.34
2022-10-17T11:49:32.134Z,101526.13
2022-10-17T11:54:41.988Z,101530.56
2022-10-17T12:00:07.649Z,101528.84
2022-10-17T12:05:22.593Z,101530.56
2022-10-17T12:10:40.028Z,101536.69
2022-10-17T12:15:46.558Z,101540.16
2022-10-17T12:20:57.530Z,101546.38
2022-10-17T12:26:04.718Z,101541.16
2022-10-17T12:31:11.758Z,101546.34
2022-10-17T12:36:49.538Z,101550.69
2022-10-17T12:41:55.951Z,101546.34
2022-10-17T12:46:59.880Z,101546.34
2022-10-17T12:52:49.286Z,101544.63
2022-10-17T12:57:57.319Z,101546.47
2022-10-17T13:03:07.492Z,101551.75
2022-10-17T13:08:18.705Z,101549.16
2022-10-17T13:13:26.331Z,101547.44
2022-10-17T13:18:30.496Z,101554.38
2022-10-17T13:23:37.568Z,101549.22
2022-10-17T13:28:41.179Z,101554.47
2022-10-17T13:33:44.715Z,101552.72
2022-10-17T13:38:50.114Z,101549.22
2022-10-17T13:43:54.052Z,101558.84
2022-10-17T13:48:58.903Z,101560.63
2022-10-17T13:54:19.382Z,101546.72
2022-10-17T13:59:24.718Z,101554.56
2022-10-17T14:04:28.304Z,101567.59
2022-10-17T14:09:33.860Z,101569.44
2022-10-17T14:15:05.146Z,101579.03
2022-10-17T14:20:34.026Z,101580.81
2022-10-17T14:25:31.709Z,101575.53
2022-10-17T14:31:03.001Z,101591.22
2022-10-17T14:35:59.702Z,101587.72
2022-10-17T14:46:35.515Z,101602.25
2022-10-17T14:51:50.384Z,101604.59
2022-10-17T14:57:15.785Z,101605.94
2022-10-17T15:02:19.302Z,101613.19
2022-10-17T15:07:23.231Z,101616.13
2022-10-17T15:12:28.707Z,101614.63
2022-10-17T15:17:33.737Z,101620.72
2022-10-17T15:22:37.339Z,101611.63
2022-10-17T15:27:42.552Z,101631.63
2022-10-17T15:32:46.098Z,101632.13
2022-10-17T15:37:50.319Z,101638.06
2022-10-17T15:42:55.520Z,101642.69
2022-10-17T15:48:04.975Z,101647.59
2022-10-17T15:53:12.804Z,101646.72
2022-10-17T15:58:19.561Z,101639.72
2022-10-17T16:03:23.091Z,101631.91
2022-10-17T16:08:26.675Z,101633.38
2022-10-17T16:13:32.267Z,101632.63
2022-10-17T16:18:35.787Z,101627.38
2022-10-17T16:23:39.334Z,101629.13
2022-10-17T16:28:46.215Z,101625.66
2022-10-17T16:33:51.621Z,101635.22
2022-10-17T16:38:55.214Z,101635.38
2022-10-17T16:44:02.373Z,101630.31
2022-10-17T16:49:06.404Z,101638.09
2022-10-17T16:54:10.071Z,101632.59
2022-10-17T16:59:15.230Z,101628.28
2022-10-17T17:04:18.755Z,101634.69
2022-10-17T17:09:22.386Z,101638.31
2022-10-17T17:14:27.646Z,101625.03
2022-10-17T17:19:31.321Z,101617.75
2022-10-17T17:24:34.840Z,101617.13
2022-10-17T17:29:40.605Z,101613.59
2022-10-17T17:34:44.130Z,101607.78
2022-10-17T17:39:47.652Z,101602.34
2022-10-17T17:44:53.726Z,101605.97
2022-10-17T17:49:57.277Z,101604.19
2022-10-17T17:55:00.812Z,101602.59
2022-10-17T18:00:07.075Z,101594.91
2022-10-17T18:05:10.649Z,101603.06
2022-10-17T18:15:20.788Z,101600.69
2022-10-17T18:20:24.328Z,101601.50
2022-10-17T18:25:27.830Z,101604.91
2022-10-17T18:30:34.539Z,101599.75
2022-10-17T18:35:38.201Z,101609.63
2022-10-17T18:40:41.742Z,101602.94
2022-10-17T18:45:46.887Z,101601.19
2022-10-17T18:50:50.461Z,101597.66
2022-10-17T18:55:53.989Z,101600.50
2022-10-17T19:01:03.472Z,101597.44
2022-10-17T19:06:08.900Z,101597.25
2022-10-17T19:11:14.821Z,101590.03
2022-10-17T19:16:21.859Z,101589.25
2022-10-17T19:21:26.140Z,101577.81
2022-10-17T19:26:31.608Z,101579.53
2022-10-17T19:31:37.405Z,101568.44
2022-10-17T19:36:41.216Z,101569.94
2022-10-17T19:41:45.950Z,101560.34
2022-10-17T19:46:52.153Z,101553.22
2022-10-17T19:51:55.813Z,101553.31
2022-10-17T19:56:59.437Z,101550.81
2022-10-17T20:02:04.734Z,101542.09
2022-10-17T20:07:08.285Z,101533.16
2022-10-17T20:12:11.831Z,101519.25
2022-10-17T20:17:17.747Z,101514.78
2022-10-17T20:22:21.479Z,101507.63
2022-10-17T20:27:27.664Z,101498.69
2022-10-17T20:32:39.528Z,101481.91
2022-10-17T20:37:43.843Z,101474.28
2022-10-17T20:42:47.359Z,101457.63
2022-10-17T20:47:53.465Z,101452.28
2022-10-17T20:53:11.114Z,101434.50
2022-10-17T20:58:20.908Z,101440.59
2022-10-17T21:03:26.101Z,101434.25
2022-10-17T21:08:29.648Z,101421.94
2022-10-17T21:13:33.153Z,101411.28
2022-10-17T21:18:38.836Z,101407.00
2022-10-17T21:23:43.746Z,101407.69
2022-10-17T21:28:48.518Z,101387.31
2022-10-17T21:33:55.946Z,101383.84
2022-10-17T21:38:59.755Z,101375.00
2022-10-17T21:44:04.943Z,101380.00
2022-10-17T21:49:12.011Z,101372.59
2022-10-17T21:54:16.189Z,101373.00
2022-10-17T21:59:19.821Z,101367.13
2022-10-17T22:04:24.978Z,101360.63
2022-10-17T22:09:28.598Z,101348.88
2022-10-17T22:14:32.136Z,101346.97
2022-10-17T22:19:37.344Z,101346.16
2022-10-17T22:24:40.852Z,101342.88
2022-10-17T22:29:44.373Z,101338.41
2022-10-17T22:34:51.014Z,101330.53
2022-10-17T22:39:54.568Z,101324.44
2022-10-17T22:44:58.158Z,101323.28
2022-10-17T22:50:03.358Z,101323.69
2022-10-17T22:55:08.002Z,101311.81
2022-10-17T23:00:12.887Z,101314.06
2022-10-17T23:05:18.166Z,101308.41
2022-10-17T23:10:21.704Z,101311.31
2022-10-17T23:15:25.249Z,101298.50
2022-10-17T23:20:31.577Z,101305.09
2022-10-17T23:25:35.620Z,101308.94
2022-10-17T23:30:39.498Z,101301.00
2022-10-17T23:35:44.667Z,101292.16
2022-10-17T23:40:48.183Z,101282.97
2022-10-17T23:45:51.701Z,101286.97
2022-10-17T23:50:57.787Z,101279.94
2022-10-17T23:56:01.447Z,101270.84
